createdAt,value
2022-08-23T00:01:45.050Z,8.63
2022-08-23T00:04:15.606Z,7.22
2022-08-23T00:06:46.960Z,10.70
2022-08-23T00:09:13.368Z,9.02
2022-08-23T00:11:45.323Z,6.95
2022-08-23T00:14:15.659Z,8.48
2022-08-23T00:16:42.339Z,6.97
2022-08-23T00:19:13.130Z,16.98
2022-08-23T00:21:40.395Z,11.80
2022-08-23T00:24:07.828Z,8.82
2022-08-23T00:26:54.526Z,6.95
2022-08-23T00:29:23.406Z,9.68
2022-08-23T00:31:50.893Z,8.07
2022-08-23T00:34:17.299Z,8.82
2022-08-23T00:36:44.947Z,8.80
2022-08-23T00:39:11.959Z,9.95
2022-08-23T00:41:38.713Z,8.75
2022-08-23T00:44:24.857Z,10.02
2022-08-23T00:47:14.628Z,7.30
2022-08-23T00:49:41.923Z,14.48
2022-08-23T00:52:21.583Z,8.60
2022-08-23T00:54:48.248Z,12.38
2022-08-23T00:57:15.804Z,9.10
2022-08-23T00:59:42.242Z,9.10
2022-08-23T01:02:09.093Z,7.20
2022-08-23T01:04:38.935Z,8.68
2022-08-23T01:07:08.239Z,8.95
2022-08-23T01:09:35.729Z,7.78
2022-08-23T01:12:08.185Z,13.70
2022-08-23T01:14:38.778Z,6.78
2022-08-23T01:17:14.703Z,9.55
2022-08-23T01:19:44.157Z,11.60
2022-08-23T01:22:18.959Z,10.23
2022-08-23T01:25:06.824Z,11.32
2022-08-23T01:27:33.201Z,9.63
2022-08-23T01:29:59.903Z,9.45
2022-08-23T01:32:26.318Z,9.35
2022-08-23T01:34:52.631Z,12.65
2022-08-23T01:37:19.799Z,12.23
2022-08-23T01:39:46.409Z,11.70
2022-08-23T01:42:12.891Z,8.40
2022-08-23T01:44:39.271Z,9.43
2022-08-23T01:47:06.556Z,17.88
2022-08-23T01:49:33.326Z,22.77
2022-08-23T01:52:00.232Z,11.15
2022-08-23T01:54:26.595Z,12.73
2022-08-23T01:56:52.996Z,12.02
2022-08-23T01:59:19.347Z,9.50
2022-08-23T02:01:47.279Z,9.88
2022-08-23T02:04:13.915Z,13.02
2022-08-23T02:06:42.991Z,8.23
2022-08-23T02:09:17.482Z,13.32
2022-08-23T02:11:44.832Z,10.73
2022-08-23T02:14:14.311Z,11.82
2022-08-23T02:16:43.708Z,10.18
2022-08-23T02:19:24.896Z,11.75
2022-08-23T02:21:51.444Z,11.63
2022-08-23T02:24:19.037Z,11.13
2022-08-23T02:26:47.599Z,10.32
2022-08-23T02:29:23.867Z,11.27
2022-08-23T02:31:50.234Z,9.30
2022-08-23T02:34:18.432Z,9.10
2022-08-23T02:36:45.393Z,14.00
2022-08-23T02:39:12.101Z,9.70
2022-08-23T02:41:38.758Z,14.20
2022-08-23T02:44:05.524Z,12.05
2022-08-23T02:46:31.988Z,10.07
2022-08-23T02:49:00.969Z,14.27
2022-08-23T02:51:27.405Z,15.30
2022-08-23T02:53:53.926Z,10.38
2022-08-23T02:56:21.509Z,13.70
2022-08-23T02:58:54.039Z,10.48
2022-08-23T03:01:26.063Z,22.67
2022-08-23T03:03:52.585Z,50.85
2022-08-23T03:06:25.512Z,10.88
2022-08-23T03:08:53.542Z,11.80
2022-08-23T03:11:23.568Z,10.68
2022-08-23T03:13:50.639Z,12.88
2022-08-23T03:16:17.086Z,10.30
2022-08-23T03:18:43.954Z,11.88
2022-08-23T03:21:10.351Z,11.23
2022-08-23T03:23:39.484Z,14.10
2022-08-23T03:26:07.160Z,8.82
2022-08-23T03:28:40.735Z,13.55
2022-08-23T03:31:08.196Z,10.73
2022-08-23T03:33:34.928Z,10.18
2022-08-23T03:36:01.942Z,11.05
2022-08-23T03:38:28.495Z,11.63
2022-08-23T03:40:55.027Z,12.07
2022-08-23T03:43:22.068Z,12.57
2022-08-23T03:45:48.464Z,8.82
2022-08-23T03:48:14.908Z,11.18
2022-08-23T03:50:41.322Z,15.43
2022-08-23T03:53:07.861Z,11.95
2022-08-23T03:55:42.220Z,9.52
2022-08-23T03:58:11.526Z,12.77
2022-08-23T04:00:38.067Z,19.52
2022-08-23T04:03:04.800Z,14.48
2022-08-23T04:05:31.300Z,12.48
2022-08-23T04:07:57.793Z,10.77
2022-08-23T04:10:24.580Z,14.00
2022-08-23T04:12:52.587Z,14.38
2022-08-23T04:15:19.700Z,20.20
2022-08-23T04:17:46.222Z,13.07
2022-08-23T04:20:12.607Z,12.38
2022-08-23T04:22:39.033Z,10.32
2022-08-23T04:25:05.554Z,12.38
2022-08-23T04:27:52.050Z,17.38
2022-08-23T04:30:22.367Z,21.55
2022-08-23T04:32:50.193Z,11.85
2022-08-23T04:35:16.727Z,12.40
2022-08-23T04:37:43.383Z,13.38
2022-08-23T04:40:29.822Z,9.98
2022-08-23T04:42:59.000Z,16.23
2022-08-23T04:45:28.373Z,19.70
2022-08-23T04:47:55.223Z,14.27
2022-08-23T04:50:21.940Z,11.77
2022-08-23T04:52:48.274Z,13.15
2022-08-23T04:55:14.613Z,12.38
2022-08-23T04:57:42.481Z,9.50
2022-08-23T05:00:11.763Z,11.60
2022-08-23T05:02:38.593Z,12.68
2022-08-23T05:05:05.671Z,11.65
2022-08-23T05:07:41.914Z,10.98
2022-08-23T05:10:12.650Z,14.95
2022-08-23T05:12:39.457Z,9.20
2022-08-23T05:15:06.120Z,10.15
2022-08-23T05:17:32.425Z,14.35
2022-08-23T05:19:58.724Z,11.48
2022-08-23T05:22:25.077Z,13.63
2022-08-23T05:24:51.391Z,12.05
2022-08-23T05:27:17.766Z,11.00
2022-08-23T05:29:44.093Z,20.02
2022-08-23T05:32:10.693Z,8.98
2022-08-23T05:34:37.318Z,13.38
2022-08-23T05:37:03.718Z,9.73
2022-08-23T05:39:33.692Z,12.68
2022-08-23T05:42:03.267Z,12.73
2022-08-23T05:44:29.778Z,11.40
2022-08-23T05:47:02.726Z,9.73
2022-08-23T05:49:29.204Z,15.65
2022-08-23T05:51:55.912Z,11.63
2022-08-23T05:54:22.247Z,14.43
2022-08-23T05:56:48.566Z,10.18
2022-08-23T05:59:16.773Z,10.45
2022-08-23T06:01:43.861Z,11.77
2022-08-23T06:04:11.985Z,15.57
2022-08-23T06:06:38.864Z,12.95
2022-08-23T06:09:06.705Z,13.23
2022-08-23T06:11:33.217Z,12.70
2022-08-23T06:14:01.240Z,15.52
2022-08-23T06:16:29.100Z,12.98
2022-08-23T06:18:56.173Z,12.10
2022-08-23T06:21:23.577Z,20.75
2022-08-23T06:23:50.303Z,14.20
2022-08-23T06:26:18.524Z,18.13
2022-08-23T06:28:51.132Z,17.85
2022-08-23T06:31:41.599Z,10.13
2022-08-23T06:34:08.631Z,18.02
2022-08-23T06:36:36.442Z,14.65
2022-08-23T06:39:04.457Z,14.52
2022-08-23T06:41:30.759Z,14.77
2022-08-23T06:43:57.085Z,12.57
2022-08-23T06:46:24.862Z,13.50
2022-08-23T06:48:55.024Z,14.38
2022-08-23T06:51:26.933Z,12.68
2022-08-23T06:53:56.476Z,15.05
2022-08-23T06:56:24.080Z,11.55
2022-08-23T06:58:50.808Z,15.07
2022-08-23T07:01:50.338Z,13.30
2022-08-23T07:04:18.439Z,12.45
2022-08-23T07:06:44.781Z,20.17
2022-08-23T07:09:11.163Z,19.60
2022-08-23T07:11:37.866Z,16.98
2022-08-23T07:14:06.238Z,17.05
2022-08-23T07:16:36.354Z,16.17
2022-08-23T07:19:03.353Z,11.88
2022-08-23T07:21:29.994Z,20.52
2022-08-23T07:23:56.604Z,13.90
2022-08-23T07:26:23.701Z,14.82
2022-08-23T07:28:50.167Z,14.98
2022-08-23T07:31:28.379Z,14.88
2022-08-23T07:33:58.907Z,14.98
2022-08-23T07:36:28.791Z,20.23
2022-08-23T07:38:55.645Z,16.85
2022-08-23T07:41:24.052Z,18.48
2022-08-23T07:43:50.496Z,18.55
2022-08-23T07:46:16.904Z,18.73
2022-08-23T07:48:54.048Z,13.70
2022-08-23T07:51:21.040Z,18.38
2022-08-23T07:53:47.445Z,15.90
2022-08-23T07:56:15.149Z,11.10
2022-08-23T07:58:41.648Z,10.88
2022-08-23T08:01:19.433Z,19.92
2022-08-23T08:03:46.593Z,12.85
2022-08-23T08:06:14.629Z,13.32
2022-08-23T08:08:41.519Z,13.98
2022-08-23T08:11:08.894Z,13.18
2022-08-23T08:13:37.952Z,18.40
2022-08-23T08:16:04.608Z,11.68
2022-08-23T08:18:31.032Z,14.57
2022-08-23T08:20:57.347Z,12.60
2022-08-23T08:23:23.671Z,19.10
2022-08-23T08:25:58.444Z,14.35
2022-08-23T08:28:24.771Z,14.07
2022-08-23T08:30:51.089Z,11.80
2022-08-23T08:33:17.393Z,13.93
2022-08-23T08:35:46.960Z,15.63
2022-08-23T08:38:24.984Z,15.63
2022-08-23T08:41:17.821Z,14.80
2022-08-23T08:43:56.081Z,19.40
2022-08-23T08:46:38.931Z,13.23
2022-08-23T08:49:05.664Z,13.98
2022-08-23T08:51:31.948Z,11.50
2022-08-23T08:53:58.871Z,21.85
2022-08-23T08:56:32.644Z,12.68
2022-08-23T08:59:01.268Z,33.43
2022-08-23T09:01:28.315Z,12.15
2022-08-23T09:03:55.135Z,13.65
2022-08-23T09:06:23.090Z,11.15
2022-08-23T09:09:04.462Z,15.85
2022-08-23T09:11:46.562Z,15.48
2022-08-23T09:14:31.820Z,10.43
2022-08-23T09:19:25.351Z,14.15
2022-08-23T09:21:54.704Z,10.05
2022-08-23T09:24:21.289Z,13.27
2022-08-23T09:26:47.618Z,12.68
2022-08-23T09:29:13.905Z,12.65
2022-08-23T09:31:42.055Z,13.23
2022-08-23T09:34:09.555Z,9.50
2022-08-23T09:36:37.456Z,10.57
2022-08-23T09:39:05.699Z,8.93
2022-08-23T09:41:36.993Z,11.40
2022-08-23T09:44:07.200Z,9.73
2022-08-23T09:46:38.998Z,12.18
2022-08-23T09:49:26.241Z,7.97
2022-08-23T09:51:54.206Z,12.27
2022-08-23T09:54:22.895Z,8.05
2022-08-23T09:56:54.367Z,10.68
2022-08-23T09:59:27.328Z,9.63
2022-08-23T10:01:55.406Z,11.27
2022-08-23T10:04:23.305Z,8.00
2022-08-23T10:06:50.275Z,7.78
2022-08-23T10:09:25.647Z,6.38
2022-08-23T10:11:52.130Z,12.48
2022-08-23T10:14:20.367Z,7.90
2022-08-23T10:17:11.059Z,8.82
2022-08-23T10:19:53.583Z,8.90
2022-08-23T10:22:22.016Z,11.38
2022-08-23T10:24:54.839Z,6.28
2022-08-23T10:27:49.094Z,6.95
2022-08-23T10:30:17.953Z,10.48
2022-08-23T10:33:01.559Z,7.60
2022-08-23T10:35:40.326Z,7.07
2022-08-23T10:38:25.112Z,8.70
2022-08-23T10:41:00.372Z,5.60
2022-08-23T10:43:35.716Z,6.10
2022-08-23T10:46:02.810Z,4.32
2022-08-23T10:48:31.930Z,5.72
2022-08-23T10:51:01.009Z,9.50
2022-08-23T10:53:33.161Z,7.13
2022-08-23T10:56:02.984Z,6.20
2022-08-23T10:58:32.378Z,8.00
2022-08-23T11:00:59.443Z,5.53
2022-08-23T11:03:29.869Z,6.63
2022-08-23T11:06:15.069Z,7.72
2022-08-23T11:08:47.867Z,12.75
2022-08-23T11:11:33.420Z,8.90
2022-08-23T11:16:31.070Z,11.32
2022-08-23T11:18:58.114Z,8.02
2022-08-23T11:21:25.008Z,6.57
2022-08-23T11:24:14.416Z,10.85
2022-08-23T11:26:44.731Z,7.55
2022-08-23T11:29:11.040Z,8.05
2022-08-23T11:31:56.395Z,5.38
2022-08-23T11:37:14.556Z,13.65
2022-08-23T11:39:59.299Z,6.00
2022-08-23T11:42:25.755Z,7.28
2022-08-23T11:44:53.187Z,6.80
2022-08-23T11:47:29.943Z,8.02
2022-08-23T11:50:03.147Z,8.82
2022-08-23T11:52:35.011Z,7.20
2022-08-23T11:55:07.344Z,6.38
2022-08-23T11:57:45.763Z,5.85
2022-08-23T12:00:28.622Z,10.65
2022-08-23T12:03:02.443Z,5.72
2022-08-23T12:05:38.405Z,5.80
2022-08-23T12:08:05.652Z,10.18
2022-08-23T12:10:37.935Z,8.70
2022-08-23T12:13:22.500Z,10.50
2022-08-23T12:16:04.636Z,5.82
2022-08-23T12:18:33.065Z,8.65
2022-08-23T12:21:04.074Z,6.95
2022-08-23T12:23:31.566Z,7.07
2022-08-23T12:25:59.579Z,5.80
2022-08-23T12:28:33.207Z,6.88
2022-08-23T12:31:08.022Z,5.55
2022-08-23T12:33:50.363Z,5.53
2022-08-23T12:36:33.312Z,7.20
2022-08-23T12:39:19.516Z,3.08
2022-08-23T12:41:55.657Z,3.42
2022-08-23T12:44:23.544Z,5.07
2022-08-23T12:46:50.524Z,3.78
2022-08-23T12:49:34.424Z,5.85
2022-08-23T12:52:08.820Z,3.10
2022-08-23T12:54:41.468Z,5.90
2022-08-23T12:57:12.276Z,4.70
2022-08-23T12:59:50.570Z,3.05
2022-08-23T13:02:27.151Z,4.22
2022-08-23T13:04:58.408Z,6.03
2022-08-23T13:07:26.549Z,2.95
2022-08-23T13:09:53.665Z,4.90
2022-08-23T13:12:21.823Z,3.75
2022-08-23T13:14:52.775Z,6.82
2022-08-23T13:17:25.027Z,3.83
2022-08-23T13:20:10.310Z,4.22
2022-08-23T13:25:32.346Z,3.08
2022-08-23T13:28:04.725Z,2.55
2022-08-23T13:30:32.784Z,7.00
2022-08-23T13:33:08.341Z,2.63
2022-08-23T13:35:37.602Z,4.38
2022-08-23T13:38:06.656Z,3.10
2022-08-23T13:40:38.996Z,8.20
2022-08-23T13:43:10.154Z,7.35
2022-08-23T13:45:44.124Z,4.93
2022-08-23T13:48:12.818Z,5.18
2022-08-23T13:50:39.529Z,4.05
2022-08-23T13:53:15.202Z,2.90
2022-08-23T13:55:44.782Z,3.55
2022-08-23T13:58:12.705Z,3.72
2022-08-23T14:00:39.073Z,4.45
2022-08-23T14:03:12.263Z,2.97
2022-08-23T14:05:38.607Z,3.13
2022-08-23T14:08:04.947Z,6.07
2022-08-23T14:10:31.434Z,5.20
2022-08-23T14:12:57.887Z,7.30
2022-08-23T14:15:54.484Z,6.22
2022-08-23T14:18:11.520Z,5.47
2022-08-23T14:20:46.440Z,5.85
2022-08-23T14:23:13.371Z,3.10
2022-08-23T14:25:39.955Z,6.07
2022-08-23T14:28:06.299Z,10.88
2022-08-23T14:30:35.912Z,4.93
2022-08-23T14:33:03.606Z,5.18
2022-08-23T14:35:30.397Z,9.57
2022-08-23T14:38:05.046Z,3.30
2022-08-23T14:42:58.692Z,2.80
2022-08-23T14:45:25.372Z,7.38
2022-08-23T14:47:51.692Z,10.13
2022-08-23T14:50:18.088Z,2.20
2022-08-23T14:52:45.827Z,2.38
2022-08-23T14:55:12.413Z,3.53
2022-08-23T14:57:38.871Z,6.63
2022-08-23T15:00:06.503Z,2.28
2022-08-23T15:02:35.796Z,1.98
2022-08-23T15:05:02.142Z,3.95
2022-08-23T15:07:28.422Z,1.75
2022-08-23T15:09:54.875Z,4.75
2022-08-23T15:15:12.176Z,3.47
2022-08-23T15:17:43.555Z,2.00
2022-08-23T15:20:10.027Z,2.08
2022-08-23T15:22:40.004Z,4.97
2022-08-23T15:25:10.988Z,3.13
2022-08-23T15:27:37.433Z,2.88
2022-08-23T15:30:04.689Z,2.42
2022-08-23T15:32:31.421Z,2.65
2022-08-23T15:34:59.484Z,2.58
2022-08-23T15:37:25.803Z,2.65
2022-08-23T15:39:52.158Z,3.78
2022-08-23T15:42:20.533Z,2.90
2022-08-23T15:44:47.343Z,1.90
2022-08-23T15:47:21.521Z,2.17
2022-08-23T15:49:48.716Z,2.85
2022-08-23T15:52:15.075Z,2.30
2022-08-23T15:54:41.420Z,3.78
2022-08-23T15:57:08.018Z,3.28
2022-08-23T15:59:37.234Z,4.65
2022-08-23T16:02:04.245Z,2.38
2022-08-23T16:04:35.628Z,2.92
2022-08-23T16:07:04.355Z,2.47
2022-08-23T16:09:30.812Z,3.90
2022-08-23T16:12:00.243Z,2.20
2022-08-23T16:14:27.092Z,2.28
2022-08-23T16:16:56.106Z,2.17
2022-08-23T16:19:22.865Z,2.30
2022-08-23T16:21:50.981Z,3.80
2022-08-23T16:24:17.287Z,3.08
2022-08-23T16:26:45.479Z,3.88
2022-08-23T16:29:13.473Z,1.83
2022-08-23T16:31:40.748Z,2.97
2022-08-23T16:34:08.620Z,2.15
2022-08-23T16:36:34.998Z,1.80
2022-08-23T16:39:01.404Z,3.55
2022-08-23T16:41:27.723Z,2.75
2022-08-23T16:43:54.067Z,2.63
2022-08-23T16:46:21.847Z,2.42
2022-08-23T16:48:48.289Z,2.67
2022-08-23T16:51:14.656Z,2.50
2022-08-23T16:53:40.996Z,2.10
2022-08-23T16:56:07.989Z,2.22
2022-08-23T16:58:34.372Z,5.20
2022-08-23T17:01:00.818Z,2.40
2022-08-23T17:03:27.313Z,2.40
2022-08-23T17:05:53.629Z,2.10
2022-08-23T17:08:19.944Z,2.28
2022-08-23T17:10:48.428Z,2.20
2022-08-23T17:13:15.295Z,2.75
2022-08-23T17:15:41.924Z,2.08
2022-08-23T17:18:08.252Z,2.17
2022-08-23T17:20:35.927Z,1.95
2022-08-23T17:23:05.550Z,1.92
2022-08-23T17:25:32.247Z,7.13
2022-08-23T17:27:58.832Z,2.55
2022-08-23T17:30:26.078Z,1.60
2022-08-23T17:32:52.635Z,2.08
2022-08-23T17:35:20.546Z,3.30
2022-08-23T17:37:46.957Z,3.70
2022-08-23T17:40:15.348Z,2.42
2022-08-23T17:42:42.563Z,2.30
2022-08-23T17:45:10.405Z,2.35
2022-08-23T17:47:36.721Z,2.20
2022-08-23T17:50:04.045Z,7.80
2022-08-23T17:52:30.416Z,3.08
2022-08-23T17:54:56.948Z,5.50
2022-08-23T17:57:23.290Z,2.35
2022-08-23T17:59:49.824Z,3.20
2022-08-23T18:02:16.203Z,3.50
2022-08-23T18:04:42.534Z,3.05
2022-08-23T18:07:08.849Z,5.45
2022-08-23T18:09:37.908Z,3.17
2022-08-23T18:12:08.336Z,3.78
2022-08-23T18:14:35.087Z,5.32
2022-08-23T18:17:02.042Z,2.70
2022-08-23T18:19:28.817Z,2.78
2022-08-23T18:21:57.699Z,5.95
2022-08-23T18:24:26.067Z,5.15
2022-08-23T18:27:11.033Z,5.68
2022-08-23T18:29:37.788Z,3.75
2022-08-23T18:32:05.652Z,5.38
2022-08-23T18:34:32.564Z,4.88
2022-08-23T18:36:59.339Z,4.57
2022-08-23T18:39:31.349Z,10.02
2022-08-23T18:42:03.874Z,3.10
2022-08-23T18:44:30.456Z,9.18
2022-08-23T18:46:57.389Z,4.15
2022-08-23T18:49:23.832Z,4.97
2022-08-23T18:51:50.219Z,5.07
2022-08-23T18:54:16.553Z,15.50
2022-08-23T18:56:43.041Z,5.95
2022-08-23T18:59:09.721Z,6.03
2022-08-23T19:01:39.133Z,6.53
2022-08-23T19:04:07.537Z,5.90
2022-08-23T19:06:34.328Z,6.53
2022-08-23T19:09:03.687Z,12.90
2022-08-23T19:11:30.329Z,8.35
2022-08-23T19:13:57.615Z,8.57
2022-08-23T19:16:24.163Z,7.15
2022-08-23T19:18:50.730Z,6.13
2022-08-23T19:21:19.086Z,5.80
2022-08-23T19:23:45.933Z,5.38
2022-08-23T19:26:13.515Z,5.78
2022-08-23T19:28:40.086Z,7.43
2022-08-23T19:31:06.724Z,6.43
2022-08-23T19:33:33.453Z,6.05
2022-08-23T19:36:00.299Z,8.40
2022-08-23T19:38:27.787Z,7.93
2022-08-23T19:40:54.789Z,6.18
2022-08-23T19:43:21.591Z,6.97
2022-08-23T19:45:48.086Z,6.90
2022-08-23T19:48:14.546Z,6.82
2022-08-23T19:50:41.151Z,39.53
2022-08-23T19:53:07.967Z,31.77
2022-08-23T19:55:34.825Z,8.32
2022-08-23T19:58:04.426Z,52.78
2022-08-23T20:00:31.301Z,31.23
2022-08-23T20:02:58.779Z,25.27
2022-08-23T20:05:25.168Z,4.72
2022-08-23T20:07:51.564Z,18.75
2022-08-23T20:10:18.022Z,6.65
2022-08-23T20:12:44.499Z,94.35
2022-08-23T20:15:20.537Z,66.90
2022-08-23T20:17:47.039Z,12.75
2022-08-23T20:20:13.901Z,22.15
2022-08-23T20:22:59.426Z,28.95
2022-08-23T20:25:25.981Z,20.58
2022-08-23T20:27:52.542Z,21.27
2022-08-23T20:30:18.931Z,19.30
2022-08-23T20:32:45.440Z,24.52
2022-08-23T20:35:11.956Z,23.08
2022-08-23T20:37:39.048Z,16.63
2022-08-23T20:40:06.144Z,17.20
2022-08-23T20:42:32.601Z,15.55
2022-08-23T20:44:59.124Z,13.40
2022-08-23T20:47:25.782Z,15.73
2022-08-23T20:49:52.369Z,15.98
2022-08-23T20:52:18.970Z,10.38
2022-08-23T20:54:46.100Z,9.32
2022-08-23T20:57:12.570Z,12.88
2022-08-23T20:59:43.727Z,12.43
2022-08-23T21:02:11.287Z,14.15
2022-08-23T21:04:37.928Z,7.82
2022-08-23T21:07:09.557Z,17.00
2022-08-23T21:09:36.088Z,15.27
2022-08-23T21:12:02.686Z,19.92
2022-08-23T21:14:29.168Z,11.68
2022-08-23T21:16:55.651Z,10.70
2022-08-23T21:19:22.035Z,17.30
2022-08-23T21:21:49.757Z,12.57
2022-08-23T21:24:18.851Z,10.60
2022-08-23T21:26:45.267Z,13.05
2022-08-23T21:29:11.699Z,10.75
2022-08-23T21:31:38.933Z,14.80
2022-08-23T21:34:05.867Z,13.90
2022-08-23T21:36:32.220Z,10.75
2022-08-23T21:39:01.079Z,13.73
2022-08-23T21:41:35.758Z,13.68
2022-08-23T21:44:03.140Z,11.82
2022-08-23T21:46:29.638Z,13.68
2022-08-23T21:48:56.054Z,14.38
2022-08-23T21:51:22.604Z,15.13
2022-08-23T21:53:49.016Z,13.10
2022-08-23T21:56:15.560Z,12.05
2022-08-23T21:58:41.866Z,17.85
2022-08-23T22:01:09.083Z,18.48
2022-08-23T22:03:35.989Z,13.50
2022-08-23T22:06:03.485Z,14.75
2022-08-23T22:08:30.017Z,13.90
2022-08-23T22:10:57.761Z,15.07
2022-08-23T22:13:26.113Z,15.23
2022-08-23T22:15:52.670Z,12.52
2022-08-23T22:18:19.501Z,13.70
2022-08-23T22:20:45.823Z,11.93
2022-08-23T22:23:12.229Z,17.88
2022-08-23T22:25:38.753Z,13.20
2022-08-23T22:28:05.184Z,15.55
2022-08-23T22:30:31.916Z,12.68
2022-08-23T22:32:58.496Z,16.70
2022-08-23T22:35:25.331Z,19.52
2022-08-23T22:38:14.667Z,20.75
2022-08-23T22:40:39.238Z,19.42
2022-08-23T22:43:05.651Z,17.85
2022-08-23T22:45:32.049Z,17.83
2022-08-23T22:47:58.637Z,19.45
2022-08-23T22:50:25.263Z,23.80
2022-08-23T22:52:51.559Z,26.05
2022-08-23T22:55:17.952Z,18.65
2022-08-23T22:57:44.314Z,29.85
2022-08-23T23:00:10.980Z,24.58
2022-08-23T23:02:38.897Z,22.90
2022-08-23T23:05:07.855Z,26.90
2022-08-23T23:07:54.697Z,24.20
2022-08-23T23:10:21.136Z,27.77
2022-08-23T23:12:47.583Z,28.73
2022-08-23T23:15:14.201Z,27.25
2022-08-23T23:17:40.593Z,32.47
2022-08-23T23:20:26.001Z,30.02
2022-08-23T23:22:52.516Z,27.27
2022-08-23T23:25:19.079Z,28.23
2022-08-23T23:27:45.624Z,28.30
2022-08-23T23:30:12.144Z,26.40
2022-08-23T23:32:38.597Z,28.00
2022-08-23T23:35:06.920Z,30.77
2022-08-23T23:37:33.288Z,23.25
2022-08-23T23:40:00.043Z,27.80
2022-08-23T23:42:26.448Z,26.30
2022-08-23T23:44:52.806Z,25.80
2022-08-23T23:47:19.281Z,28.50
2022-08-23T23:49:46.901Z,26.55
2022-08-23T23:52:13.484Z,29.27
2022-08-23T23:54:40.922Z,26.80
2022-08-23T23:57:07.415Z,25.10
2022-08-23T23:59:34.160Z,25.58
